createdAt,value
2022-08-17T00:00:51.662Z,50.908173
2022-08-17T00:01:52.086Z,50.908195
2022-08-17T00:02:43.229Z,50.908115
2022-08-17T00:03:42.103Z,50.908134
2022-08-17T00:04:42.856Z,50.908146
2022-08-17T00:05:42.070Z,50.908150
2022-08-17T00:06:42.062Z,50.908146
2022-08-17T00:07:42.096Z,50.908138
2022-08-17T00:08:42.041Z,50.908112
2022-08-17T00:09:42.054Z,50.908142
2022-08-17T00:10:42.026Z,50.908150
2022-08-17T00:11:42.019Z,50.908127
2022-08-17T00:12:44.519Z,50.908138
2022-08-17T00:13:43.007Z,50.908150
2022-08-17T00:14:41.992Z,50.908142
2022-08-17T00:15:42.013Z,50.908127
2022-08-17T00:16:56.074Z,50.908134
2022-08-17T00:17:42.967Z,50.908157
2022-08-17T00:19:05.801Z,50.908176
2022-08-17T00:19:42.955Z,50.908150
2022-08-17T00:20:41.973Z,50.908161
2022-08-17T00:22:28.738Z,50.908127
2022-08-17T00:22:42.939Z,50.908173
2022-08-17T00:23:47.899Z,50.908154
2022-08-17T00:24:42.917Z,50.908131
2022-08-17T00:25:41.934Z,50.908157
2022-08-17T00:26:44.951Z,50.908146
2022-08-17T00:27:41.891Z,50.908138
2022-08-17T00:28:41.883Z,50.908184
2022-08-17T00:29:41.874Z,50.908161
2022-08-17T00:30:50.871Z,50.908119
2022-08-17T00:31:42.877Z,50.908092
2022-08-17T00:33:15.011Z,50.908161
2022-08-17T00:33:42.838Z,50.908154
2022-08-17T00:34:41.831Z,50.908123
2022-08-17T00:35:41.857Z,50.908070
2022-08-17T00:36:41.817Z,50.908131
2022-08-17T00:37:41.807Z,50.908092
2022-08-17T00:38:41.802Z,50.908112
2022-08-17T00:39:41.881Z,50.908188
2022-08-17T00:40:44.938Z,50.908157
2022-08-17T00:41:42.510Z,50.908146
2022-08-17T00:42:41.772Z,50.908161
2022-08-17T00:43:41.757Z,50.908142
2022-08-17T00:44:41.755Z,50.908142
2022-08-17T00:45:41.773Z,50.908138
2022-08-17T00:46:41.735Z,50.908119
2022-08-17T00:47:41.734Z,50.908142
2022-08-17T00:48:41.722Z,50.908134
2022-08-17T00:49:41.712Z,50.908131
2022-08-17T00:50:41.731Z,50.908154
2022-08-17T00:51:41.699Z,50.908138
2022-08-17T00:52:41.760Z,50.908146
2022-08-17T00:53:41.685Z,50.908161
2022-08-17T00:54:42.302Z,50.908150
2022-08-17T00:55:41.696Z,50.908134
2022-08-17T00:56:41.659Z,50.908134
2022-08-17T00:57:41.659Z,50.908115
2022-08-17T00:58:41.649Z,50.908112
2022-08-17T00:59:41.633Z,50.908096
2022-08-17T01:00:41.855Z,50.908115
2022-08-17T01:01:41.660Z,50.908131
2022-08-17T01:02:42.974Z,50.908115
2022-08-17T01:03:41.603Z,50.908104
2022-08-17T01:04:41.592Z,50.908092
2022-08-17T01:05:42.363Z,50.908092
2022-08-17T01:06:41.582Z,50.908108
2022-08-17T01:07:41.576Z,50.908104
2022-08-17T01:08:41.555Z,50.908115
2022-08-17T01:09:42.558Z,50.908134
2022-08-17T01:11:00.334Z,50.908096
2022-08-17T01:11:42.544Z,50.908123
2022-08-17T01:12:41.545Z,50.908123
2022-08-17T01:13:41.882Z,50.908165
2022-08-17T01:14:41.524Z,50.908157
2022-08-17T01:15:41.535Z,50.908104
2022-08-17T01:16:41.511Z,50.908150
2022-08-17T01:17:41.494Z,50.908157
2022-08-17T01:18:41.490Z,50.908123
2022-08-17T01:19:41.483Z,50.908112
2022-08-17T01:20:48.203Z,50.908100
2022-08-17T01:21:42.461Z,50.908131
2022-08-17T01:22:41.456Z,50.908089
2022-08-17T01:23:41.451Z,50.908092
2022-08-17T01:24:41.440Z,50.908089
2022-08-17T01:25:41.470Z,50.908085
2022-08-17T01:26:41.426Z,50.908150
2022-08-17T01:27:41.417Z,50.908131
2022-08-17T01:28:55.084Z,50.908115
2022-08-17T01:29:42.407Z,50.908112
2022-08-17T01:30:58.402Z,50.908142
2022-08-17T01:31:42.387Z,50.908134
2022-08-17T01:32:41.380Z,50.908142
2022-08-17T01:33:41.375Z,50.908134
2022-08-17T01:34:43.762Z,50.908131
2022-08-17T01:35:42.391Z,50.908127
2022-08-17T01:36:41.346Z,50.908119
2022-08-17T01:37:41.342Z,50.908104
2022-08-17T01:38:41.345Z,50.908150
2022-08-17T01:39:41.402Z,50.908131
2022-08-17T01:40:41.340Z,50.908127
2022-08-17T01:41:41.316Z,50.908150
2022-08-17T01:42:41.303Z,50.908146
2022-08-17T01:43:41.290Z,50.908119
2022-08-17T01:44:41.286Z,50.908146
2022-08-17T01:45:41.298Z,50.908146
2022-08-17T01:46:41.270Z,50.908154
2022-08-17T01:47:41.261Z,50.908100
2022-08-17T01:48:41.255Z,50.908142
2022-08-17T01:49:41.238Z,50.908112
2022-08-17T01:50:41.258Z,50.908154
2022-08-17T01:51:41.229Z,50.908100
2022-08-17T01:52:41.229Z,50.908134
2022-08-17T01:53:41.220Z,50.908154
2022-08-17T01:54:41.206Z,50.908131
2022-08-17T01:55:41.227Z,50.908131
2022-08-17T01:56:41.193Z,50.908127
2022-08-17T01:57:41.184Z,50.908123
2022-08-17T01:58:41.183Z,50.908188
2022-08-17T01:59:41.171Z,50.908142
2022-08-17T02:00:46.734Z,50.908131
2022-08-17T02:01:42.169Z,50.908161
2022-08-17T02:02:41.148Z,50.908154
2022-08-17T02:03:41.143Z,50.908142
2022-08-17T02:04:42.138Z,50.908119
2022-08-17T02:05:41.162Z,50.908176
2022-08-17T02:06:52.721Z,50.908161
2022-08-17T02:07:59.879Z,50.908115
2022-08-17T02:09:01.712Z,50.908169
2022-08-17T02:09:42.220Z,50.908165
2022-08-17T02:10:46.815Z,50.908165
2022-08-17T02:11:42.104Z,50.908226
2022-08-17T02:12:41.074Z,50.908203
2022-08-17T02:13:41.064Z,50.908199
2022-08-17T02:14:41.059Z,50.908165
2022-08-17T02:15:41.046Z,50.908165
2022-08-17T02:16:41.064Z,50.908165
2022-08-17T02:17:41.043Z,50.908192
2022-08-17T02:18:41.035Z,50.908100
2022-08-17T02:19:41.022Z,50.907932
2022-08-17T02:20:42.490Z,50.907993
2022-08-17T02:21:41.027Z,50.908005
2022-08-17T02:22:40.994Z,50.908092
2022-08-17T02:23:40.985Z,50.908051
2022-08-17T02:25:00.454Z,50.908100
2022-08-17T02:25:41.973Z,50.908062
2022-08-17T02:26:40.985Z,50.908020
2022-08-17T02:27:40.952Z,50.908070
2022-08-17T02:28:40.951Z,50.908012
2022-08-17T02:29:40.937Z,50.908081
2022-08-17T02:31:02.154Z,50.908031
2022-08-17T02:31:41.947Z,50.908073
2022-08-17T02:32:40.919Z,50.908081
2022-08-17T02:33:42.528Z,50.908028
2022-08-17T02:34:40.910Z,50.908031
2022-08-17T02:35:40.894Z,50.908070
2022-08-17T02:36:40.908Z,50.908043
2022-08-17T02:37:40.865Z,50.908077
2022-08-17T02:38:41.869Z,50.908096
2022-08-17T02:39:40.899Z,50.908108
2022-08-17T02:40:40.855Z,50.908096
2022-08-17T02:41:40.873Z,50.908123
2022-08-17T02:42:40.835Z,50.908142
2022-08-17T02:43:40.825Z,50.908039
2022-08-17T02:44:40.806Z,50.908096
2022-08-17T02:45:41.817Z,50.908115
2022-08-17T02:46:40.832Z,50.908081
2022-08-17T02:47:40.798Z,50.908073
2022-08-17T02:48:40.794Z,50.908085
2022-08-17T02:49:45.119Z,50.908077
2022-08-17T02:50:41.776Z,50.908089
2022-08-17T02:51:40.794Z,50.908112
2022-08-17T02:53:02.094Z,50.908104
2022-08-17T02:53:41.753Z,50.908104
2022-08-17T02:54:42.397Z,50.908096
2022-08-17T02:55:41.738Z,50.908096
2022-08-17T02:56:40.756Z,50.908112
2022-08-17T02:57:40.713Z,50.908119
2022-08-17T02:58:40.714Z,50.908115
2022-08-17T02:59:43.288Z,50.908100
2022-08-17T03:00:41.714Z,50.908123
2022-08-17T03:01:40.751Z,50.908100
2022-08-17T03:02:40.685Z,50.908138
2022-08-17T03:03:40.671Z,50.908092
2022-08-17T03:04:40.669Z,50.908081
2022-08-17T03:05:40.660Z,50.908123
2022-08-17T03:06:40.677Z,50.908123
2022-08-17T03:07:40.643Z,50.908096
2022-08-17T03:08:40.648Z,50.908100
2022-08-17T03:09:40.628Z,50.908100
2022-08-17T03:10:40.621Z,50.908112
2022-08-17T03:11:40.638Z,50.908131
2022-08-17T03:12:40.607Z,50.908134
2022-08-17T03:13:40.598Z,50.908123
2022-08-17T03:14:41.668Z,50.908138
2022-08-17T03:15:41.588Z,50.908123
2022-08-17T03:16:40.609Z,50.908112
2022-08-17T03:17:40.569Z,50.908123
2022-08-17T03:18:40.556Z,50.908112
2022-08-17T03:19:42.885Z,50.908119
2022-08-17T03:20:40.547Z,50.908131
2022-08-17T03:21:40.564Z,50.908123
2022-08-17T03:22:40.570Z,50.908138
2022-08-17T03:23:40.533Z,50.908119
2022-08-17T03:24:40.517Z,50.908108
2022-08-17T03:25:40.520Z,50.908138
2022-08-17T03:26:40.528Z,50.908123
2022-08-17T03:27:42.048Z,50.908131
2022-08-17T03:28:40.486Z,50.908142
2022-08-17T03:29:40.485Z,50.908131
2022-08-17T03:30:40.483Z,50.908131
2022-08-17T03:31:40.491Z,50.908131
2022-08-17T03:32:40.460Z,50.908146
2022-08-17T03:33:40.458Z,50.908131
2022-08-17T03:34:40.444Z,50.908134
2022-08-17T03:35:40.532Z,50.908123
2022-08-17T03:36:40.462Z,50.908134
2022-08-17T03:37:40.422Z,50.908154
2022-08-17T03:38:40.420Z,50.908131
2022-08-17T03:39:40.434Z,50.908119
2022-08-17T03:40:56.236Z,50.908142
2022-08-17T03:41:41.421Z,50.908123
2022-08-17T03:42:40.385Z,50.908138
2022-08-17T03:43:40.377Z,50.908119
2022-08-17T03:44:40.371Z,50.908127
2022-08-17T03:45:40.363Z,50.908131
2022-08-17T03:46:40.385Z,50.908123
2022-08-17T03:47:40.346Z,50.908108
2022-08-17T03:48:40.332Z,50.908123
2022-08-17T03:49:40.326Z,50.908100
2022-08-17T03:50:40.320Z,50.908070
2022-08-17T03:51:40.345Z,50.908070
2022-08-17T03:52:40.302Z,50.908089
2022-08-17T03:53:40.299Z,50.908089
2022-08-17T03:54:40.292Z,50.908131
2022-08-17T03:55:40.285Z,50.908054
2022-08-17T03:56:40.279Z,50.908043
2022-08-17T03:57:40.291Z,50.908039
2022-08-17T03:58:40.261Z,50.908115
2022-08-17T03:59:40.247Z,50.908066
2022-08-17T04:00:40.237Z,50.908089
2022-08-17T04:01:40.314Z,50.908070
2022-08-17T04:02:40.258Z,50.908108
2022-08-17T04:03:40.222Z,50.908131
2022-08-17T04:04:40.213Z,50.908138
2022-08-17T04:05:40.210Z,50.908127
2022-08-17T04:06:40.201Z,50.908142
2022-08-17T04:07:40.215Z,50.908138
2022-08-17T04:08:40.188Z,50.908073
2022-08-17T04:09:40.176Z,50.908020
2022-08-17T04:10:44.921Z,50.908024
2022-08-17T04:11:42.155Z,50.908112
2022-08-17T04:12:40.174Z,50.908096
2022-08-17T04:13:40.146Z,50.908115
2022-08-17T04:14:52.732Z,50.908115
2022-08-17T04:15:42.124Z,50.908112
2022-08-17T04:16:40.123Z,50.908123
2022-08-17T04:17:40.140Z,50.908123
2022-08-17T04:18:40.103Z,50.908119
2022-08-17T04:19:40.105Z,50.908127
2022-08-17T04:20:40.090Z,50.908131
2022-08-17T04:21:40.082Z,50.908119
2022-08-17T04:22:40.101Z,50.908115
2022-08-17T04:23:40.060Z,50.908180
2022-08-17T04:24:40.050Z,50.908146
2022-08-17T04:25:40.050Z,50.908146
2022-08-17T04:26:52.771Z,50.908161
2022-08-17T04:27:41.065Z,50.908119
2022-08-17T04:28:40.023Z,50.908134
2022-08-17T04:29:54.547Z,50.908119
2022-08-17T04:30:41.024Z,50.908108
2022-08-17T04:31:40.006Z,50.908131
2022-08-17T04:33:02.212Z,50.908131
2022-08-17T04:33:40.988Z,50.908131
2022-08-17T04:34:39.977Z,50.908218
2022-08-17T04:35:39.974Z,50.908150
2022-08-17T04:36:39.965Z,50.908161
2022-08-17T04:37:40.988Z,50.908127
2022-08-17T04:38:39.945Z,50.908138
2022-08-17T04:39:39.995Z,50.908138
2022-08-17T04:40:39.934Z,50.908123
2022-08-17T04:41:39.923Z,50.908131
2022-08-17T04:42:39.947Z,50.908100
2022-08-17T04:43:39.913Z,50.908070
2022-08-17T04:44:39.905Z,50.908112
2022-08-17T04:45:39.892Z,50.908058
2022-08-17T04:46:39.884Z,50.908104
2022-08-17T04:47:39.901Z,50.908104
2022-08-17T04:48:39.869Z,50.908073
2022-08-17T04:49:39.860Z,50.908131
2022-08-17T04:50:39.854Z,50.908115
2022-08-17T04:51:39.844Z,50.908123
2022-08-17T04:52:43.249Z,50.908138
2022-08-17T04:53:40.837Z,50.908165
2022-08-17T04:54:39.822Z,50.908150
2022-08-17T04:55:39.814Z,50.908142
2022-08-17T04:56:39.809Z,50.908176
2022-08-17T04:57:44.529Z,50.908176
2022-08-17T04:58:41.787Z,50.908173
2022-08-17T04:59:39.785Z,50.908218
2022-08-17T05:00:39.775Z,50.908165
2022-08-17T05:01:39.857Z,50.908123
2022-08-17T05:02:39.792Z,50.908146
2022-08-17T05:03:40.752Z,50.908142
2022-08-17T05:04:39.745Z,50.908169
2022-08-17T05:05:39.739Z,50.908131
2022-08-17T05:06:39.728Z,50.908161
2022-08-17T05:07:39.752Z,50.908134
2022-08-17T05:08:39.715Z,50.908161
2022-08-17T05:09:39.704Z,50.908138
2022-08-17T05:10:45.087Z,50.908134
2022-08-17T05:11:40.692Z,50.908112
2022-08-17T05:12:39.712Z,50.908134
2022-08-17T05:13:39.685Z,50.908123
2022-08-17T05:14:39.671Z,50.908092
2022-08-17T05:15:39.663Z,50.908142
2022-08-17T05:16:40.653Z,50.908119
2022-08-17T05:17:39.671Z,50.908119
2022-08-17T05:18:39.660Z,50.908127
2022-08-17T05:19:39.631Z,50.908119
2022-08-17T05:20:39.622Z,50.908161
2022-08-17T05:21:39.612Z,50.908146
2022-08-17T05:22:39.640Z,50.908195
2022-08-17T05:23:42.429Z,50.908184
2022-08-17T05:24:43.694Z,50.908176
2022-08-17T05:25:40.590Z,50.908176
2022-08-17T05:26:39.584Z,50.908165
2022-08-17T05:27:39.604Z,50.908169
2022-08-17T05:28:39.567Z,50.908215
2022-08-17T05:29:39.562Z,50.908134
2022-08-17T05:30:39.545Z,50.908146
2022-08-17T05:31:40.545Z,50.908157
2022-08-17T05:32:40.458Z,50.908188
2022-08-17T05:33:44.448Z,50.908150
2022-08-17T05:34:41.523Z,50.908169
2022-08-17T05:35:39.513Z,50.908142
2022-08-17T05:36:43.093Z,50.908146
2022-08-17T05:37:39.501Z,50.908134
2022-08-17T05:38:39.520Z,50.908146
2022-08-17T05:39:39.520Z,50.908154
2022-08-17T05:40:39.479Z,50.908150
2022-08-17T05:41:39.467Z,50.908146
2022-08-17T05:42:39.468Z,50.908134
2022-08-17T05:43:39.486Z,50.908131
2022-08-17T05:44:39.462Z,50.908131
2022-08-17T05:45:54.337Z,50.908127
2022-08-17T05:46:40.438Z,50.908131
2022-08-17T05:47:39.436Z,50.908150
2022-08-17T05:48:40.444Z,50.908142
2022-08-17T05:49:39.424Z,50.908119
2022-08-17T05:50:39.413Z,50.908115
2022-08-17T05:51:39.403Z,50.908112
2022-08-17T05:52:39.392Z,50.908127
2022-08-17T05:53:39.415Z,50.908157
2022-08-17T05:54:39.385Z,50.908169
2022-08-17T05:55:39.376Z,50.908165
2022-08-17T05:56:39.372Z,50.908131
2022-08-17T05:57:42.448Z,50.908115
2022-08-17T05:58:40.383Z,50.908089
2022-08-17T05:59:39.351Z,50.908039
2022-08-17T06:00:42.056Z,50.908081
2022-08-17T06:01:39.360Z,50.908112
2022-08-17T06:02:42.012Z,50.908115
2022-08-17T06:03:40.345Z,50.908123
2022-08-17T06:04:39.318Z,50.908081
2022-08-17T06:05:39.305Z,50.908100
2022-08-17T06:06:39.303Z,50.908081
2022-08-17T06:07:39.297Z,50.908031
2022-08-17T06:08:39.313Z,50.908115
2022-08-17T06:09:39.286Z,50.908112
2022-08-17T06:10:39.277Z,50.908070
2022-08-17T06:11:39.269Z,50.908077
2022-08-17T06:12:39.256Z,50.908081
2022-08-17T06:13:39.283Z,50.908085
2022-08-17T06:14:39.255Z,50.908062
2022-08-17T06:15:39.242Z,50.907997
2022-08-17T06:16:39.239Z,50.908100
2022-08-17T06:17:39.227Z,50.908131
2022-08-17T06:18:39.254Z,50.908089
2022-08-17T06:19:39.217Z,50.908169
2022-08-17T06:20:39.214Z,50.908157
2022-08-17T06:21:39.193Z,50.908108
2022-08-17T06:22:40.200Z,50.908081
2022-08-17T06:23:39.211Z,50.908039
2022-08-17T06:24:39.188Z,50.908054
2022-08-17T06:25:39.211Z,50.908077
2022-08-17T06:26:42.951Z,50.908112
2022-08-17T06:27:40.166Z,50.908073
2022-08-17T06:28:39.188Z,50.908047
2022-08-17T06:29:39.159Z,50.908062
2022-08-17T06:30:59.711Z,50.908089
2022-08-17T06:31:40.148Z,50.908131
2022-08-17T06:32:39.138Z,50.908173
2022-08-17T06:33:39.158Z,50.908119
2022-08-17T06:34:39.128Z,50.908096
2022-08-17T06:35:39.149Z,50.908100
2022-08-17T06:36:39.112Z,50.908073
2022-08-17T06:37:39.113Z,50.908092
2022-08-17T06:38:39.134Z,50.908134
2022-08-17T06:39:39.136Z,50.908180
2022-08-17T06:40:39.089Z,50.908127
2022-08-17T06:41:39.083Z,50.908085
2022-08-17T06:43:05.026Z,50.908039
2022-08-17T06:43:40.267Z,50.908077
2022-08-17T06:44:50.226Z,50.908085
2022-08-17T06:45:40.078Z,50.908112
2022-08-17T06:46:39.058Z,50.908089
2022-08-17T06:47:39.046Z,50.908092
2022-08-17T06:48:39.043Z,50.908073
2022-08-17T06:49:39.061Z,50.908085
2022-08-17T06:50:39.031Z,50.908089
2022-08-17T06:51:39.026Z,50.908066
2022-08-17T06:52:45.826Z,50.908081
2022-08-17T06:53:40.008Z,50.908066
2022-08-17T06:54:39.042Z,50.908054
2022-08-17T06:55:38.997Z,50.908108
2022-08-17T06:56:53.835Z,50.908085
2022-08-17T06:57:39.987Z,50.908058
2022-08-17T06:58:40.257Z,50.908051
2022-08-17T06:59:54.611Z,50.908012
2022-08-17T07:00:40.054Z,50.908051
2022-08-17T07:01:39.037Z,50.908058
2022-08-17T07:02:52.000Z,50.908066
2022-08-17T07:03:39.956Z,50.908009
2022-08-17T07:04:38.970Z,50.908058
2022-08-17T07:05:38.965Z,50.908115
2022-08-17T07:06:38.938Z,50.908089
2022-08-17T07:07:38.934Z,50.908035
2022-08-17T07:08:38.952Z,50.908047
2022-08-17T07:09:38.926Z,50.908024
2022-08-17T07:10:38.915Z,50.908051
2022-08-17T07:11:38.911Z,50.908051
2022-08-17T07:12:38.905Z,50.908070
2022-08-17T07:13:38.928Z,50.908070
2022-08-17T07:14:38.898Z,50.908058
2022-08-17T07:15:38.892Z,50.908043
2022-08-17T07:16:38.885Z,50.908062
2022-08-17T07:17:56.849Z,50.908081
2022-08-17T07:18:39.901Z,50.908077
2022-08-17T07:19:38.873Z,50.908047
2022-08-17T07:20:38.862Z,50.908047
2022-08-17T07:21:38.861Z,50.908054
2022-08-17T07:22:57.217Z,50.908066
2022-08-17T07:23:39.872Z,50.908054
2022-08-17T07:24:38.843Z,50.908047
2022-08-17T07:25:38.834Z,50.908039
2022-08-17T07:26:38.842Z,50.908047
2022-08-17T07:27:38.827Z,50.908035
2022-08-17T07:28:38.848Z,50.908024
2022-08-17T07:29:38.819Z,50.908020
2022-08-17T07:30:46.892Z,50.907978
2022-08-17T07:31:39.811Z,50.907860
2022-08-17T07:32:38.798Z,50.907902
2022-08-17T07:33:38.823Z,50.907948
2022-08-17T07:34:38.788Z,50.907982
2022-08-17T07:35:41.451Z,50.907982
2022-08-17T07:36:39.777Z,50.907990
2022-08-17T07:37:38.769Z,50.908016
2022-08-17T07:38:38.796Z,50.908020
2022-08-17T07:39:59.619Z,50.908058
2022-08-17T07:40:39.826Z,50.908012
2022-08-17T07:41:57.120Z,50.908028
2022-08-17T07:42:44.522Z,50.907951
2022-08-17T07:43:40.773Z,50.907940
2022-08-17T07:44:38.738Z,50.908009
2022-08-17T07:45:38.747Z,50.908039
2022-08-17T07:46:38.727Z,50.908058
2022-08-17T07:47:38.723Z,50.907967
2022-08-17T07:48:38.719Z,50.907951
2022-08-17T07:49:38.737Z,50.907917
2022-08-17T07:50:38.706Z,50.907909
2022-08-17T07:51:38.704Z,50.908104
2022-08-17T07:52:51.099Z,50.908085
2022-08-17T07:53:39.691Z,50.908054
2022-08-17T07:54:38.712Z,50.908009
2022-08-17T07:55:38.686Z,50.908020
2022-08-17T07:56:38.675Z,50.907993
2022-08-17T07:57:38.672Z,50.907990
2022-08-17T07:58:38.662Z,50.908024
2022-08-17T07:59:38.760Z,50.908073
2022-08-17T08:00:38.653Z,50.908123
2022-08-17T08:01:41.779Z,50.908127
2022-08-17T08:02:38.663Z,50.908043
2022-08-17T08:03:38.638Z,50.908051
2022-08-17T08:05:49.322Z,50.908108
2022-08-17T08:06:39.616Z,50.908096
2022-08-17T08:07:38.612Z,50.908119
2022-08-17T08:08:38.615Z,50.908138
2022-08-17T08:09:38.628Z,50.908119
2022-08-17T08:10:38.598Z,50.908123
2022-08-17T08:11:44.108Z,50.908123
2022-08-17T08:12:39.593Z,50.908100
2022-08-17T08:13:38.582Z,50.908100
2022-08-17T08:14:38.597Z,50.908112
2022-08-17T08:15:38.569Z,50.908096
2022-08-17T08:16:39.561Z,50.908108
2022-08-17T08:17:38.556Z,50.908123
2022-08-17T08:18:55.852Z,50.908138
2022-08-17T08:19:39.579Z,50.908154
2022-08-17T08:20:53.206Z,50.908173
2022-08-17T08:21:39.540Z,50.908169
2022-08-17T08:22:38.535Z,50.908127
2022-08-17T08:23:38.528Z,50.908104
2022-08-17T08:24:38.548Z,50.908073
2022-08-17T08:25:38.518Z,50.908108
2022-08-17T08:26:38.512Z,50.908108
2022-08-17T08:27:38.506Z,50.908119
2022-08-17T08:28:38.500Z,50.908119
2022-08-17T08:29:38.494Z,50.908127
2022-08-17T08:30:38.516Z,50.908100
2022-08-17T08:31:42.164Z,50.908184
2022-08-17T08:32:39.479Z,50.908115
2022-08-17T08:33:38.480Z,50.908131
2022-08-17T08:34:58.817Z,50.908096
2022-08-17T08:35:39.490Z,50.908123
2022-08-17T08:37:14.036Z,50.908119
2022-08-17T08:37:42.901Z,50.908077
2022-08-17T08:38:39.449Z,50.908073
2022-08-17T08:39:38.480Z,50.908096
2022-08-17T08:40:38.466Z,50.908161
2022-08-17T08:41:39.145Z,50.908131
2022-08-17T08:42:38.438Z,50.908127
2022-08-17T08:43:38.425Z,50.908108
2022-08-17T08:44:59.848Z,50.908070
2022-08-17T08:45:39.439Z,50.908112
2022-08-17T08:46:38.405Z,50.908089
2022-08-17T08:47:38.397Z,50.908207
2022-08-17T08:48:52.945Z,50.908154
2022-08-17T08:50:02.704Z,50.908131
2022-08-17T08:50:40.412Z,50.908134
2022-08-17T08:51:38.378Z,50.908127
2022-08-17T08:52:38.378Z,50.908154
2022-08-17T08:53:38.362Z,50.908169
2022-08-17T08:54:38.355Z,50.908157
2022-08-17T08:55:38.377Z,50.908112
2022-08-17T08:56:38.342Z,50.908138
2022-08-17T08:57:38.349Z,50.908123
2022-08-17T08:58:41.887Z,50.908070
2022-08-17T08:59:42.139Z,50.908119
2022-08-17T09:00:39.355Z,50.908115
2022-08-17T09:01:38.363Z,50.908043
2022-08-17T09:02:38.310Z,50.908123
2022-08-17T09:03:52.173Z,50.908127
2022-08-17T09:05:02.588Z,50.908081
2022-08-17T09:05:40.312Z,50.908134
2022-08-17T09:06:39.845Z,50.908169
2022-08-17T09:07:38.278Z,50.908165
2022-08-17T09:08:38.275Z,50.908138
2022-08-17T09:09:38.266Z,50.908131
2022-08-17T09:10:38.292Z,50.908138
2022-08-17T09:12:01.099Z,50.908134
2022-08-17T09:12:39.245Z,50.908154
2022-08-17T09:13:38.242Z,50.908154
2022-08-17T09:14:45.029Z,50.908195
2022-08-17T09:15:39.260Z,50.908169
2022-08-17T09:16:38.225Z,50.908127
2022-08-17T09:17:38.220Z,50.908142
2022-08-17T09:19:00.614Z,50.908131
2022-08-17T09:19:39.213Z,50.908150
2022-08-17T09:20:38.201Z,50.908154
2022-08-17T09:21:38.256Z,50.908134
2022-08-17T09:22:39.189Z,50.908112
2022-08-17T09:23:38.191Z,50.908112
2022-08-17T09:24:38.177Z,50.908119
2022-08-17T09:25:38.172Z,50.908134
2022-08-17T09:26:38.285Z,50.908112
2022-08-17T09:27:38.161Z,50.908127
2022-08-17T09:28:38.163Z,50.908142
2022-08-17T09:29:38.148Z,50.908138
2022-08-17T09:30:38.136Z,50.908123
2022-08-17T09:31:48.849Z,50.908138
2022-08-17T09:32:39.123Z,50.908127
2022-08-17T09:33:38.114Z,50.908104
2022-08-17T09:34:38.116Z,50.908134
2022-08-17T09:35:38.103Z,50.908146
2022-08-17T09:36:38.303Z,50.908150
2022-08-17T09:37:38.088Z,50.908100
2022-08-17T09:38:38.084Z,50.908161
2022-08-17T09:39:38.099Z,50.908146
2022-08-17T09:40:38.070Z,50.908154
2022-08-17T09:41:38.314Z,50.908100
2022-08-17T09:42:39.060Z,50.908100
2022-08-17T09:43:38.059Z,50.908115
2022-08-17T09:44:38.044Z,50.908115
2022-08-17T09:45:38.037Z,50.908115
2022-08-17T09:46:39.012Z,50.908131
2022-08-17T09:47:39.025Z,50.908134
2022-08-17T09:48:38.012Z,50.908073
2022-08-17T09:49:39.011Z,50.908108
2022-08-17T09:51:05.173Z,50.908154
2022-08-17T09:51:39.019Z,50.908150
2022-08-17T09:52:38.670Z,50.908154
2022-08-17T09:53:37.981Z,50.908127
2022-08-17T09:54:39.715Z,50.908131
2022-08-17T09:55:38.969Z,50.908112
2022-08-17T09:56:42.338Z,50.908127
2022-08-17T09:57:38.953Z,50.908077
2022-08-17T09:58:37.951Z,50.908127
2022-08-17T09:59:38.732Z,50.908112
2022-08-17T10:00:37.936Z,50.908134
2022-08-17T10:01:37.990Z,50.908161
2022-08-17T10:02:37.925Z,50.908142
2022-08-17T10:03:37.915Z,50.908154
2022-08-17T10:04:37.904Z,50.908134
2022-08-17T10:05:37.898Z,50.908127
2022-08-17T10:06:37.921Z,50.908157
2022-08-17T10:07:37.888Z,50.908165
2022-08-17T10:08:37.880Z,50.908176
2022-08-17T10:09:37.872Z,50.908134
2022-08-17T10:10:37.866Z,50.908119
2022-08-17T10:11:37.888Z,50.908192
2022-08-17T10:12:38.854Z,50.908123
2022-08-17T10:13:38.847Z,50.908131
2022-08-17T10:14:44.152Z,50.908207
2022-08-17T10:15:42.456Z,50.908100
2022-08-17T10:16:37.855Z,50.908127
2022-08-17T10:17:37.821Z,50.908146
2022-08-17T10:18:37.836Z,50.908092
2022-08-17T10:19:37.808Z,50.908092
2022-08-17T10:20:37.802Z,50.908092
2022-08-17T10:21:37.814Z,50.908066
2022-08-17T10:22:38.268Z,50.908127
2022-08-17T10:23:37.783Z,50.908089
2022-08-17T10:24:37.776Z,50.908108
2022-08-17T10:25:53.958Z,50.908218
2022-08-17T10:26:46.240Z,50.908188
2022-08-17T10:27:38.746Z,50.908215
2022-08-17T10:28:37.742Z,50.908108
2022-08-17T10:29:48.862Z,50.908089
2022-08-17T10:30:38.729Z,50.908142
2022-08-17T10:31:37.757Z,50.908127
2022-08-17T10:32:37.712Z,50.908134
2022-08-17T10:33:37.717Z,50.908234
2022-08-17T10:34:38.877Z,50.908115
2022-08-17T10:35:37.690Z,50.908051
2022-08-17T10:36:37.711Z,50.908051
2022-08-17T10:37:37.678Z,50.908051
2022-08-17T10:38:37.673Z,50.908035
2022-08-17T10:39:52.344Z,50.908062
2022-08-17T10:40:38.652Z,50.908035
2022-08-17T10:41:40.409Z,50.907688
2022-08-17T10:42:38.656Z,50.907913
2022-08-17T10:43:37.634Z,50.908035
2022-08-17T10:44:41.047Z,50.908245
2022-08-17T10:45:37.620Z,50.908089
2022-08-17T10:46:37.715Z,50.908112
2022-08-17T10:47:54.697Z,50.908169
2022-08-17T10:48:39.600Z,50.908070
2022-08-17T10:49:37.594Z,50.908134
2022-08-17T10:50:37.588Z,50.908077
2022-08-17T10:51:37.606Z,50.908104
2022-08-17T10:52:37.572Z,50.908165
2022-08-17T10:53:37.568Z,50.908119
2022-08-17T10:54:37.555Z,50.908089
2022-08-17T10:55:37.552Z,50.908173
2022-08-17T10:56:37.571Z,50.907986
2022-08-17T10:57:37.544Z,50.908066
2022-08-17T10:58:37.532Z,50.908085
2022-08-17T10:59:37.528Z,50.908115
2022-08-17T11:00:37.559Z,50.908039
2022-08-17T11:01:37.538Z,50.908131
2022-08-17T11:02:37.502Z,50.908112
2022-08-17T11:03:37.496Z,50.908108
2022-08-17T11:04:37.491Z,50.908089
2022-08-17T11:05:41.503Z,50.908089
2022-08-17T11:06:39.594Z,50.908096
2022-08-17T11:07:37.466Z,50.908104
2022-08-17T11:08:37.460Z,50.908066
2022-08-17T11:09:37.452Z,50.908066
2022-08-17T11:10:37.441Z,50.908112
2022-08-17T11:11:37.437Z,50.908115
2022-08-17T11:12:37.497Z,50.908115
2022-08-17T11:13:37.425Z,50.908123
2022-08-17T11:14:37.417Z,50.908142
2022-08-17T11:15:37.399Z,50.908176
2022-08-17T11:16:38.429Z,50.908127
2022-08-17T11:17:37.405Z,50.908123
2022-08-17T11:18:37.409Z,50.908131
2022-08-17T11:19:37.383Z,50.908119
2022-08-17T11:20:37.377Z,50.908092
2022-08-17T11:21:37.385Z,50.908115
2022-08-17T11:22:37.403Z,50.908108
2022-08-17T11:23:37.358Z,50.908138
2022-08-17T11:24:37.365Z,50.908119
2022-08-17T11:25:37.351Z,50.908142